createdAt,value
2019-04-06T00:02:56.992Z,7.30
2019-04-06T00:08:59.283Z,7.40
2019-04-06T00:15:02.115Z,7.40
2019-04-06T00:21:04.766Z,7.50
2019-04-06T00:27:07.014Z,7.60
2019-04-06T00:33:11.263Z,7.60
2019-04-06T00:39:14.009Z,7.60
2019-04-06T00:45:17.863Z,7.70
2019-04-06T00:51:20.031Z,7.80
2019-04-06T00:57:23.575Z,7.80
2019-04-06T01:03:26.623Z,7.60
2019-04-06T01:09:28.982Z,7.50
2019-04-06T01:15:31.466Z,7.40
2019-04-06T01:21:36.264Z,7.40
2019-04-06T01:27:39.232Z,7.30
2019-04-06T01:33:41.994Z,7.30
2019-04-06T01:39:44.234Z,7.30
2019-04-06T01:45:46.988Z,7.30
2019-04-06T01:51:49.253Z,7.30
2019-04-06T01:57:52.769Z,7.50
2019-04-06T02:03:55.186Z,7.50
2019-04-06T02:09:57.506Z,7.50
2019-04-06T02:16:05.927Z,7.50
2019-04-06T02:22:08.121Z,7.60
2019-04-06T02:28:10.452Z,7.60
2019-04-06T02:34:26.623Z,7.60
2019-04-06T02:40:39.368Z,7.80
2019-04-06T02:46:41.692Z,7.80
2019-04-06T02:52:43.934Z,7.70
2019-04-06T02:58:48.721Z,7.60
2019-04-06T03:04:51.472Z,7.50
2019-04-06T03:10:53.833Z,7.50
2019-04-06T03:16:56.373Z,7.50
2019-04-06T03:23:00.807Z,7.50
2019-04-06T03:29:03.061Z,7.60
2019-04-06T03:35:05.696Z,7.70
2019-04-06T03:41:08.865Z,7.70
2019-04-06T03:47:13.025Z,7.80
2019-04-06T03:53:15.462Z,7.90
2019-04-06T03:59:17.766Z,8.10
2019-04-06T04:05:20.540Z,8.20
2019-04-06T04:11:22.805Z,8.30
2019-04-06T04:17:26.538Z,8.40
2019-04-06T04:23:35.037Z,8.40
2019-04-06T04:29:38.627Z,8.40
2019-04-06T04:35:41.122Z,8.40
2019-04-06T04:41:43.460Z,8.40
2019-04-06T04:47:50.043Z,8.50
2019-04-06T04:53:52.910Z,8.60
2019-04-06T04:59:56.045Z,8.60
2019-04-06T05:06:03.443Z,8.60
2019-04-06T05:12:05.868Z,8.80
2019-04-06T05:18:10.250Z,8.90
2019-04-06T05:24:15.318Z,9.00
2019-04-06T05:30:17.924Z,9.10
2019-04-06T05:36:22.985Z,9.30
2019-04-06T05:42:25.406Z,9.20
2019-04-06T05:48:31.100Z,9.20
2019-04-06T05:54:33.711Z,9.50
2019-04-06T06:00:40.127Z,9.50
2019-04-06T06:06:41.107Z,9.50
2019-04-06T06:12:43.960Z,9.40
2019-04-06T06:18:46.414Z,9.50
2019-04-06T06:24:48.683Z,9.70
2019-04-06T06:30:51.045Z,9.90
2019-04-06T06:36:54.415Z,10.30
2019-04-06T06:42:56.768Z,10.60
2019-04-06T06:48:59.442Z,10.90
2019-04-06T06:55:02.137Z,11.30
2019-04-06T07:01:04.477Z,11.70
2019-04-06T07:07:06.713Z,11.80
2019-04-06T07:13:08.925Z,11.70
2019-04-06T07:19:11.133Z,11.80
2019-04-06T07:25:13.978Z,12.10
2019-04-06T07:31:16.592Z,12.50
2019-04-06T07:37:19.019Z,12.60
2019-04-06T07:43:22.993Z,14.30
2019-04-06T07:49:25.651Z,16.40
2019-04-06T07:55:30.877Z,15.70
2019-04-06T08:01:33.449Z,14.10
2019-04-06T08:07:36.052Z,13.70
2019-04-06T08:13:39.530Z,13.00
2019-04-06T08:19:41.963Z,12.40
2019-04-06T08:25:44.266Z,12.40
2019-04-06T08:31:46.725Z,12.50
2019-04-06T08:37:49.100Z,12.30
2019-04-06T08:43:51.627Z,12.40
2019-04-06T08:49:54.061Z,13.10
2019-04-06T08:55:57.543Z,13.60
2019-04-06T09:02:02.789Z,13.90
2019-04-06T09:08:05.268Z,13.90
2019-04-06T09:14:07.684Z,13.90
2019-04-06T09:20:12.678Z,14.00
2019-04-06T09:26:15.430Z,13.90
2019-04-06T09:32:18.435Z,15.20
2019-04-06T09:38:21.151Z,15.40
2019-04-06T09:44:28.442Z,14.90
2019-04-06T09:50:34.965Z,15.40
2019-04-06T09:56:42.810Z,15.50
2019-04-06T10:02:55.648Z,16.10
2019-04-06T10:09:16.973Z,16.20
2019-04-06T10:15:42.616Z,16.60
2019-04-06T10:21:53.583Z,16.70
2019-04-06T10:28:00.892Z,16.90
2019-04-06T10:34:25.472Z,16.90
2019-04-06T10:40:31.890Z,16.70
2019-04-06T10:47:02.768Z,16.30
2019-04-06T10:53:08.393Z,16.10
2019-04-06T10:59:19.970Z,15.50
2019-04-06T11:05:43.065Z,15.20
2019-04-06T11:12:06.289Z,15.30
2019-04-06T11:18:28.249Z,15.60
2019-04-06T11:24:53.735Z,15.70
2019-04-06T11:31:16.491Z,15.60
2019-04-06T11:37:28.822Z,15.90
2019-04-06T11:43:54.230Z,16.00
2019-04-06T11:50:13.403Z,16.10
2019-04-06T11:56:34.178Z,16.50
2019-04-06T12:02:55.204Z,16.30
2019-04-06T12:09:24.508Z,16.40
2019-04-06T12:15:44.567Z,16.50
2019-04-06T12:22:01.903Z,16.90
2019-04-06T12:34:41.128Z,16.70
2019-04-06T12:40:53.193Z,17.00
2019-04-06T12:47:15.723Z,17.10
2019-04-06T12:53:45.160Z,17.20
2019-04-06T13:00:06.209Z,17.30
2019-04-06T13:06:42.647Z,17.60
2019-04-06T13:13:03.871Z,17.60
2019-04-06T13:19:14.770Z,17.70
2019-04-06T13:25:26.696Z,17.60
2019-04-06T13:31:34.001Z,17.90
2019-04-06T13:37:42.660Z,18.00
2019-04-06T13:44:04.935Z,18.30
2019-04-06T13:50:13.199Z,18.20
2019-04-06T13:56:29.244Z,18.10
2019-04-06T14:02:42.352Z,18.30
2019-04-06T14:08:58.966Z,18.10
2019-04-06T14:15:03.681Z,18.20
2019-04-06T14:21:34.420Z,18.30
2019-04-06T14:27:44.065Z,18.10
2019-04-06T14:34:04.862Z,18.00
2019-04-06T14:40:09.344Z,18.00
2019-04-06T14:46:16.670Z,18.30
2019-04-06T14:52:25.125Z,18.20
2019-04-06T14:58:45.724Z,18.20
2019-04-06T15:04:59.232Z,18.10
2019-04-06T15:11:04.795Z,18.10
2019-04-06T15:17:22.160Z,18.10
2019-04-06T15:23:32.012Z,18.10
2019-04-06T15:29:44.181Z,18.20
2019-04-06T15:35:58.709Z,17.80
2019-04-06T15:42:10.635Z,17.80
2019-04-06T15:48:38.752Z,17.90
2019-04-06T15:54:55.381Z,17.80
2019-04-06T16:01:04.983Z,17.50
2019-04-06T16:07:12.799Z,17.50
2019-04-06T16:13:29.907Z,17.40
2019-04-06T16:19:44.080Z,17.20
2019-04-06T16:26:05.193Z,17.20
2019-04-06T16:32:32.934Z,17.10
2019-04-06T16:38:44.433Z,16.90
2019-04-06T16:44:57.891Z,16.60
2019-04-06T16:51:20.226Z,16.40
2019-04-06T16:57:30.454Z,16.20
2019-04-06T17:03:38.459Z,16.00
2019-04-06T17:10:02.059Z,15.70
2019-04-06T17:16:09.653Z,15.50
2019-04-06T17:22:30.641Z,15.20
2019-04-06T17:28:35.869Z,14.90
2019-04-06T17:34:54.514Z,14.70
2019-04-06T17:41:04.246Z,14.50
2019-04-06T17:47:08.810Z,14.20
2019-04-06T17:53:29.866Z,14.00
2019-04-06T17:59:34.964Z,13.80
2019-04-06T18:05:57.014Z,13.60
2019-04-06T18:12:01.202Z,13.40
2019-04-06T18:18:04.348Z,13.10
2019-04-06T18:24:06.699Z,13.00
2019-04-06T18:30:09.189Z,12.80
2019-04-06T18:36:11.856Z,12.60
2019-04-06T18:42:14.241Z,12.50
2019-04-06T18:48:16.900Z,12.40
2019-04-06T18:54:19.937Z,12.20
2019-04-06T19:00:24.220Z,12.00
2019-04-06T19:06:28.249Z,11.80
2019-04-06T19:12:32.563Z,11.70
2019-04-06T19:18:36.277Z,11.50
2019-04-06T19:24:42.050Z,11.40
2019-04-06T19:30:45.126Z,11.20
2019-04-06T19:36:50.973Z,11.00
2019-04-06T19:43:00.066Z,10.80
2019-04-06T19:49:00.162Z,10.50
2019-04-06T19:55:03.904Z,10.30
2019-04-06T20:01:09.501Z,10.10
2019-04-06T20:07:12.720Z,9.90
2019-04-06T20:13:15.891Z,9.60
2019-04-06T20:19:18.976Z,9.40
2019-04-06T20:25:25.363Z,9.30
2019-04-06T20:31:29.729Z,9.20
2019-04-06T20:37:34.464Z,9.10
2019-04-06T20:43:37.152Z,8.90
2019-04-06T20:49:40.144Z,8.90
2019-04-06T20:55:43.097Z,8.70
2019-04-06T21:01:49.583Z,8.60
2019-04-06T21:07:53.007Z,8.40
2019-04-06T21:13:58.329Z,8.40
2019-04-06T21:20:01.630Z,8.30
2019-04-06T21:26:05.102Z,8.20
2019-04-06T21:32:08.196Z,8.10
2019-04-06T21:38:13.278Z,8.00
2019-04-06T21:44:15.781Z,7.90
2019-04-06T21:50:20.537Z,7.80
2019-04-06T21:56:23.559Z,7.70
2019-04-06T22:02:26.217Z,7.50
2019-04-06T22:08:33.610Z,7.40
2019-04-06T22:20:47.092Z,7.20
2019-04-06T22:26:52.416Z,7.20
2019-04-06T22:32:55.056Z,7.10
2019-04-06T22:38:57.830Z,6.90
2019-04-06T22:45:01.430Z,6.90
2019-04-06T22:51:03.761Z,6.80
2019-04-06T23:09:37.172Z,6.50
2019-04-06T23:36:51.154Z,6.10
2019-04-06T23:42:53.758Z,5.90
2019-04-06T23:49:51.779Z,5.80
2019-04-06T23:55:54.623Z,5.80
